KDNV/DNV METAR and TAF weather

Enter ICAO airport designator
Station Type Date Time Source
KDNV METAR 2024/06/15 22:35 UTC NOAA

KDNV 152235Z AUTO 13008KT 10SM CLR 29/11 A3005 RMK AO2 T02850109


Station Type Date Time Source
KDNV Decoded METAR 2024/06/15 22:35 UTC NOAA

Danville, Vermilion County Airport, IL, United States (KDNV) 40-11-58N 087-35-44W
Jun 15, 2024 - 06:35 PM EDT / 2024.06.15 2235 UTC
Wind: from the SE (130 degrees) at 9 MPH (8 KT):0
Visibility: 10 mile(s):0
Sky conditions: clear
Temperature: 83.3 F (28.5 C)
Dew Point: 51.6 F (10.9 C)
Relative Humidity: 33%
Pressure (altimeter): 30.05 in. Hg (1017 hPa)
ob: KDNV 152235Z AUTO 13008KT 10SM CLR 29/11 A3005 RMK AO2 T02850109
cycle: 22

Station Type Date Time Source
KDNV TAF UTC NOAA

Error!

Example: see airport list